Time;durP1;ratioP1;P1;durP2;ratioP2;P2;SDS_P1;SDS_P2;PMS_P1;PMS_P2;Temp;Humidity;BMP_temperature;BMP_pressure;BME280_temperature;BME280_humidity;BME280_pressure;Samples;Min_cycle;Max_cycle;Signal;HPM_P1;HPM_P2
2022/10/03 00:05:12;;;;;;;20.60;3.83;;;;;;;7.29;100.00;102070.34;12894086;23;20043;-89
2022/10/03 00:10:21;;;;;;;20.08;3.20;;;;;;;9.14;100.00;102350.22;12889911;23;20007;-89
2022/10/03 00:15:25;;;;;;;15.98;3.05;;;;;;;7.64;100.00;102119.59;12880618;23;20015;-87
2022/10/03 00:20:29;;;;;;;21.77;3.53;;;;;;;9.47;100.00;102369.47;12834081;23;20002;-89
2022/10/03 00:25:30;;;;;;;22.98;3.13;;;;;;;9.64;100.00;102380.91;12795131;22;20020;-86
2022/10/03 00:30:44;;;;;;;15.15;3.33;;;;;;;8.22;100.00;102147.44;12853153;23;20004;-89
2022/10/03 00:36:01;;;;;;;14.95;2.95;;;;;;;9.07;100.00;102263.13;12825272;22;20034;-89
2022/10/03 00:41:35;;;;;;;22.15;3.58;;;;;;;9.96;100.00;102384.69;12869480;23;20431;-86
2022/10/03 00:47:12;;;;;;;18.80;2.58;;;;;;;9.27;100.00;102300.75;12799526;22;20008;-89
2022/10/03 00:52:24;;;;;;;19.53;3.60;;;;;;;9.19;100.00;102304.53;12837249;23;20343;-86
2022/10/03 00:57:40;;;;;;;15.00;2.75;;;;;;;9.69;100.00;102390.22;12877286;23;20075;-89
2022/10/03 01:03:03;;;;;;;18.00;2.97;;;;;;;9.74;100.00;102400.59;12861535;23;20020;-86
2022/10/03 01:08:29;;;;;;;17.77;2.70;;;;;;;9.74;100.00;102410.75;12877383;22;20027;-90
2022/10/03 01:14:01;;;;;;;21.25;2.40;;;;;;;9.80;100.00;102407.16;12852820;23;20019;-87
2022/10/03 01:19:05;;;;;;;16.75;2.50;;;;;;;9.65;100.00;102386.19;12904115;23;20004;-88
2022/10/03 01:24:34;;;;;;;10.75;2.35;;;;;;;9.92;100.00;102421.94;12863157;23;20111;-88
2022/10/03 01:35:28;;;;;;;20.90;3.22;;;;;;;9.20;100.00;102330.97;12861215;22;20070;-87
2022/10/03 01:40:48;;;;;;;18.98;3.83;;;;;;;10.05;100.00;102421.94;12819129;23;19996;-87
2022/10/03 01:45:52;;;;;;;14.23;1.95;;;;;;;8.86;100.00;102236.66;12877006;23;20055;-89
2022/10/03 01:51:06;;;;;;;16.58;2.33;;;;;;;9.07;100.00;102254.88;12856330;23;20014;-86
2022/10/03 01:56:28;;;;;;;15.05;2.50;;;;;;;10.27;100.00;102416.19;12826612;23;20020;-87
2022/10/03 02:01:47;;;;;;;12.70;1.63;;;;;;;9.35;100.00;102273.06;12876563;23;20442;-89
2022/10/03 02:07:07;;;;;;;20.85;3.10;;;;;;;10.16;100.00;102428.69;12878337;23;20358;-89
2022/10/03 02:12:28;;;;;;;16.60;3.00;;;;;;;10.05;100.00;102423.84;12845390;22;20021;-89
2022/10/03 02:17:44;;;;;;;17.20;1.90;;;;;;;9.98;100.00;102456.00;12829183;23;20035;-86
2022/10/03 02:22:50;;;;;;;22.92;2.60;;;;;;;8.68;100.00;102215.34;12844522;23;20019;-88
2022/10/03 02:28:11;;;;;;;15.95;2.92;;;;;;;9.98;100.00;102467.84;12829698;23;20008;-86
2022/10/03 02:33:43;;;;;;;11.32;2.03;;;;;;;9.84;100.00;102390.00;12862536;23;20005;-88
2022/10/03 02:38:52;;;;;;;20.38;3.38;;;;;;;9.09;100.00;102326.94;12865190;23;20031;-86
2022/10/03 02:44:23;;;;;;;17.92;2.22;;;;;;;8.09;100.00;102172.09;12855271;23;20027;-86
2022/10/03 02:49:30;;;;;;;14.73;2.20;;;;;;;9.75;100.00;102398.69;12885867;22;20066;-87
2022/10/03 02:55:11;;;;;;;15.43;2.67;;;;;;;8.50;100.00;102190.38;12907355;23;20078;-86
2022/10/03 03:00:40;;;;;;;21.67;2.40;;;;;;;8.88;100.00;102252.94;12807500;22;20019;-87
2022/10/03 03:06:03;;;;;;;12.38;1.70;;;;;;;10.18;100.00;102461.53;12891214;23;20016;-89
2022/10/03 03:11:32;;;;;;;13.73;2.00;;;;;;;10.22;100.00;102458.13;12881625;23;20008;-91
2022/10/03 03:16:38;;;;;;;12.02;1.83;;;;;;;10.24;100.00;102461.50;12881722;23;20004;-88
2022/10/03 03:21:57;;;;;;;12.32;2.03;;;;;;;10.23;100.00;102461.72;12842699;23;20303;-88
2022/10/03 03:27:29;;;;;;;13.43;3.20;;;;;;;8.88;100.00;102302.38;12884409;23;20004;-89
2022/10/03 03:32:57;;;;;;;18.92;2.03;;;;;;;8.27;100.00;102212.69;12884782;23;20008;-87
2022/10/03 03:38:20;;;;;;;10.18;1.88;;;;;;;8.83;100.00;102319.50;12903352;23;20030;-87
2022/10/03 03:43:48;;;;;;;14.77;2.38;;;;;;;9.08;100.00;102365.63;12836511;23;20024;-86
2022/10/03 03:49:11;;;;;;;18.45;2.05;;;;;;;8.28;100.00;102242.63;12890966;23;20401;-86
2022/10/03 03:54:47;;;;;;;16.05;2.70;;;;;;;8.18;100.00;102266.84;12831938;22;20070;-86
2022/10/03 04:00:16;;;;;;;15.30;2.45;;;;;;;8.96;100.00;102403.81;12881376;23;20343;-88
2022/10/03 04:05:39;;;;;;;14.43;3.42;;;;;;;8.12;100.00;102270.41;12883506;23;20044;-86
2022/10/03 04:10:41;;;;;;;17.92;2.03;;;;;;;9.35;100.00;102479.19;12847829;23;20011;-88
2022/10/03 04:15:47;;;;;;;16.23;1.90;;;;;;;9.36;100.00;102507.53;12878828;23;20004;-86
2022/10/03 04:21:12;;;;;;;18.57;2.27;;;;;;;9.38;100.00;102478.75;12906722;23;20015;-88
2022/10/03 04:26:32;;;;;;;13.65;2.00;;;;;;;8.36;100.00;102323.09;12882949;23;20020;-88
2022/10/03 04:31:50;;;;;;;15.90;1.92;;;;;;;7.53;100.00;102208.72;12869178;22;20072;-86
2022/10/03 04:37:08;;;;;;;14.07;2.17;;;;;;;7.72;100.00;102264.72;12856019;23;20008;-89
2022/10/03 04:42:12;;;;;;;11.38;1.85;;;;;;;7.52;100.00;102192.50;12829120;23;20522;-89
2022/10/03 04:47:46;;;;;;;13.40;2.38;;;;;;;7.78;100.00;102214.56;12802977;22;20042;-86
2022/10/03 04:52:49;;;;;;;15.77;1.95;;;;;;;8.46;100.00;102340.91;12854368;23;20027;-88
2022/10/03 04:57:59;;;;;;;13.98;1.65;;;;;;;9.12;100.00;102440.25;12854364;23;20016;-89
2022/10/03 05:03:21;;;;;;;16.55;3.03;;;;;;;7.84;100.00;102268.59;12855437;23;20016;-90
2022/10/03 05:08:58;;;;;;;14.65;1.75;;;;;;;8.12;100.00;102319.78;12822964;23;20060;-89
2022/10/03 05:14:02;;;;;;;10.07;1.92;;;;;;;9.32;100.00;102501.59;12864907;23;20004;-86
2022/10/03 05:19:05;;;;;;;22.25;2.90;;;;;;;9.22;100.00;102512.13;12865069;22;20031;-86
2022/10/03 05:24:20;;;;;;;14.32;2.25;;;;;;;9.13;100.00;102508.69;12841900;22;20440;-89
2022/10/03 05:29:51;;;;;;;12.82;2.40;;;;;;;9.04;100.00;102515.44;12811163;22;20005;-89
2022/10/03 05:35:36;;;;;;;11.60;1.80;;;;;;;8.93;100.00;102516.00;12819336;22;20036;-88
2022/10/03 05:40:39;;;;;;;12.82;2.50;;;;;;;7.55;100.00;102298.97;12873708;22;20075;-86
2022/10/03 05:45:45;;;;;;;23.58;3.85;;;;;;;8.75;100.00;102524.78;12814475;22;20018;-88
2022/10/03 05:51:07;;;;;;;14.75;2.10;;;;;;;8.72;100.00;102519.69;12834415;22;20021;-86
2022/10/03 05:56:20;;;;;;;16.15;2.55;;;;;;;8.76;100.00;102531.97;12804901;22;20019;-88
2022/10/03 06:01:51;;;;;;;8.70;2.13;;;;;;;8.77;100.00;102541.91;12865325;22;20012;-88
2022/10/03 06:07:13;;;;;;;15.93;2.58;;;;;;;8.81;100.00;102544.03;12845655;23;20020;-89
2022/10/03 06:12:56;;;;;;;13.40;2.10;;;;;;;8.39;100.00;102473.59;12864179;23;20138;-86
2022/10/03 06:18:30;;;;;;;23.48;2.70;;;;;;;7.60;100.00;102326.63;12830770;23;20012;-89
2022/10/03 06:24:05;;;;;;;16.85;3.22;;;;;;;8.95;100.00;102550.47;12694727;22;20354;-89
2022/10/03 06:29:34;;;;;;;17.55;2.95;;;;;;;9.12;100.00;102555.63;12712780;22;20054;-89
2022/10/03 06:34:59;;;;;;;13.15;2.70;;;;;;;9.24;100.00;102563.09;12875472;23;20004;-89
2022/10/03 06:40:24;;;;;;;15.15;3.05;;;;;;;9.42;100.00;102568.00;12848011;23;20011;-90
2022/10/03 06:45:48;;;;;;;15.40;3.33;;;;;;;9.58;100.00;102575.06;12873565;23;20016;-89
2022/10/03 06:50:49;;;;;;;18.75;2.95;;;;;;;9.70;100.00;102581.66;12850262;23;20004;-86
2022/10/03 06:55:55;;;;;;;14.30;3.58;;;;;;;9.01;100.00;102502.09;12887003;23;20024;-87
2022/10/03 07:01:10;;;;;;;16.85;3.38;;;;;;;8.63;100.00;102410.03;12873840;23;20087;-86
2022/10/03 07:06:32;;;;;;;15.60;3.10;;;;;;;9.52;100.00;102555.81;12874768;23;20081;-86
2022/10/03 07:11:45;;;;;;;10.18;2.75;;;;;;;9.69;100.00;102595.63;12873065;23;20008;-88
2022/10/03 07:16:48;;;;;;;14.73;2.47;;;;;;;9.79;100.00;102601.56;12840319;22;20017;-91
2022/10/03 07:22:32;;;;;;;16.52;2.75;;;;;;;9.99;100.00;102595.28;12738207;22;20000;-90
2022/10/03 07:27:42;;;;;;;17.10;2.90;;;;;;;10.21;100.00;102602.31;12760606;22;20012;-92
2022/10/03 07:33:20;;;;;;;15.68;2.88;;;;;;;10.45;100.00;102600.03;12748886;22;20020;-89
2022/10/03 07:39:00;;;;;;;17.20;2.53;;;;;;;9.75;100.00;102479.28;12773475;22;20012;-92
2022/10/03 07:44:28;;;;;;;13.35;2.20;;;;;;;10.83;100.00;102621.41;12818284;22;20016;-91
2022/10/03 07:49:53;;;;;;;13.95;2.20;;;;;;;11.08;100.00;102622.47;12785375;22;20011;-90
2022/10/03 07:55:25;;;;;;;13.98;3.17;;;;;;;10.85;100.00;102561.44;12813667;23;20470;-90
2022/10/03 08:01:04;;;;;;;13.02;1.60;;;;;;;11.52;100.00;102618.06;12610865;23;20015;-91
2022/10/03 08:06:37;;;;;;;37.88;4.72;;;;;;;10.75;100.00;102478.38;12714311;23;20567;-91
2022/10/03 08:12:16;;;;;;;12.07;1.67;;;;;;;12.00;100.00;102607.69;12670722;23;20009;-91
2022/10/03 08:17:33;;;;;;;12.60;1.92;;;;;;;12.24;100.00;102615.19;12785319;23;20557;-89
2022/10/03 08:22:38;;;;;;;10.75;1.20;;;;;;;11.97;100.00;102556.56;12774202;23;20096;-89
2022/10/03 08:28:03;;;;;;;10.02;1.38;;;;;;;12.18;100.00;102582.09;12804969;23;20431;-90
2022/10/03 08:33:22;;;;;;;;;;;;;;;;;;;;;
2022/10/03 08:39:00;;;;;;;18.25;1.75;;;;;;;13.05;100.00;102618.94;12850115;23;20390;-92
2022/10/03 08:44:38;;;;;;;13.57;1.52;;;;;;;13.26;100.00;102630.66;12784004;23;20316;-90
2022/10/03 08:49:50;;;;;;;10.50;1.70;;;;;;;13.43;100.00;102626.22;12774693;23;20032;-88
2022/10/03 08:55:04;;;;;;;10.80;1.63;;;;;;;13.30;100.00;102557.22;12855309;23;20012;-90
2022/10/03 09:00:17;;;;;;;10.73;1.20;;;;;;;12.41;100.00;102385.41;12895390;23;20024;-89
2022/10/03 09:05:30;;;;;;;6.38;1.15;;;;;;;14.20;100.00;102611.81;12736832;23;20023;-89
2022/10/03 09:11:10;;;;;;;15.43;1.75;;;;;;;14.41;100.00;102615.09;12753367;23;20004;-90
2022/10/03 09:22:46;;;;;;;7.80;1.23;;;;;;;14.99;100.00;102625.44;12630401;23;20018;-91
2022/10/03 09:28:07;;;;;;;6.70;1.20;;;;;;;15.12;100.00;102622.41;12739819;23;20008;-91
2022/10/03 09:33:31;;;;;;;9.82;0.85;;;;;;;14.35;100.00;102435.97;12749624;23;20012;-92
2022/10/03 09:38:56;;;;;;;5.97;1.05;;;;;;;15.62;100.00;102612.66;12645174;23;20077;-91
2022/10/03 09:44:16;;;;;;;11.65;1.20;;;;;;;15.86;100.00;102607.91;12802483;23;20040;-88
2022/10/03 09:49:25;;;;;;;4.53;0.85;;;;;;;16.19;100.00;102611.84;12872001;23;20376;-88
2022/10/03 09:54:50;;;;;;;13.88;2.08;;;;;;;16.23;100.00;102618.59;12746515;23;20390;-87
2022/10/03 10:00:02;;;;;;;6.93;0.98;;;;;;;16.50;100.00;102606.84;12762596;23;20095;-88
2022/10/03 10:05:53;;;;;;;6.00;1.20;;;;;;;16.41;100.00;102598.06;12780514;23;20044;-87
2022/10/03 10:11:09;;;;;;;6.20;1.13;;;;;;;16.40;100.00;102601.94;12777515;23;20083;-89
2022/10/03 10:16:39;;;;;;;6.10;1.20;;;;;;;16.65;100.00;102593.19;12770735;23;20043;-86
2022/10/03 10:22:07;;;;;;;7.35;1.00;;;;;;;16.52;100.00;102543.50;12673881;23;20015;-88
2022/10/03 10:27:55;;;;;;;;;;;;;;;;;;;;;
2022/10/03 10:34:08;;;;;;;10.57;1.00;;;;;;;17.46;100.00;102564.00;12601319;22;20009;-87
2022/10/03 11:41:37;;;;;;;2.90;0.68;;;;;;;18.47;100.00;102548.63;13114135;22;1358972;-92
2022/10/03 11:46:44;;;;;;;5.88;0.70;;;;;;;17.64;100.00;102482.06;13005403;22;20045;-88
2022/10/03 11:52:02;;;;;;;3.85;0.88;;;;;;;17.20;100.00;102393.06;13028406;22;20496;-88
2022/10/03 11:57:07;;;;;;;7.72;1.35;;;;;;;18.27;100.00;102429.41;13006169;22;20006;-88
2022/10/03 12:02:44;;;;;;;4.00;0.60;;;;;;;17.66;100.00;102354.53;13027605;22;20002;-89
2022/10/03 12:13:41;;;;;;;3.55;0.70;;;;;;;20.72;94.64;102485.00;13054007;22;20078;-89
2022/10/03 12:18:41;;;;;;;6.57;0.82;;;;;;;21.55;89.66;102447.09;13076527;22;20010;-89
2022/10/03 12:24:22;;;;;;;4.97;0.70;;;;;;;21.35;82.19;102422.84;13065921;22;20007;-90
2022/10/03 12:29:27;;;;;;;4.82;0.90;;;;;;;20.71;81.92;102262.25;13031483;22;20017;-93
2022/10/03 12:34:37;;;;;;;2.70;0.52;;;;;;;19.68;85.61;102347.56;12933193;22;20004;-93
2022/10/03 12:40:03;;;;;;;3.58;0.85;;;;;;;18.65;87.59;102480.41;12920816;22;20037;-93
2022/10/03 12:45:26;;;;;;;3.97;1.00;;;;;;;18.40;91.57;102475.47;13030691;22;20018;-94
2022/10/03 12:50:47;;;;;;;2.70;0.88;;;;;;;18.00;95.57;102462.94;13001662;22;20014;-93
2022/10/03 12:56:07;;;;;;;5.65;1.85;;;;;;;18.80;97.78;102543.84;13046104;22;20021;-88
2022/10/03 13:01:29;;;;;;;4.75;1.13;;;;;;;18.54;96.82;102535.28;12987781;22;19999;-91
2022/10/03 13:06:38;;;;;;;4.72;1.27;;;;;;;18.40;100.00;102570.28;13000992;22;20025;-93
2022/10/03 13:12:05;;;;;;;4.20;1.00;;;;;;;18.79;100.00;102544.94;12940434;22;20332;-90
2022/10/03 13:17:19;;;;;;;;;;;;;;;18.64;100.00;102535.34;12950849;22;19995;-89
2022/10/03 13:22:38;;;;;;;5.10;1.02;;;;;;;18.79;100.00;102531.00;13038105;22;19938;-88
2022/10/03 13:27:47;;;;;;;2.65;0.80;;;;;;;17.77;100.00;102408.38;13052803;22;20018;-89
2022/10/03 13:33:08;;;;;;;7.32;0.90;;;;;;;18.54;100.00;102480.34;13027363;22;20420;-89
2022/10/03 13:38:45;;;;;;;6.60;1.10;;;;;;;19.38;100.00;102522.34;13043570;22;20059;-89
2022/10/03 13:44:11;;;;;;;4.50;0.77;;;;;;;18.54;95.72;102301.00;13019298;22;20030;-92
2022/10/03 13:49:40;;;;;;;4.15;0.82;;;;;;;18.78;93.69;102306.09;12943888;22;20029;-92
2022/10/03 13:55:25;;;;;;;3.60;0.60;;;;;;;19.87;91.11;102491.22;12936093;22;20034;-92
2022/10/03 14:00:51;;;;;;;3.80;0.65;;;;;;;17.72;95.65;102225.34;12859554;22;20034;-92
2022/10/03 14:06:30;;;;;;;4.37;0.67;;;;;;;19.18;96.98;102505.53;12837257;22;20090;-92
2022/10/03 14:12:13;;;;;;;4.78;0.60;;;;;;;18.23;95.49;102303.69;12863992;22;20007;-93
2022/10/03 14:17:27;;;;;;;2.72;1.08;;;;;;;17.81;95.04;102251.56;12743523;22;20512;-90
2022/10/03 14:23:04;;;;;;;5.20;0.70;;;;;;;19.26;98.44;102497.47;12841331;22;20472;-91
2022/10/03 14:28:34;;;;;;;5.50;1.15;;;;;;;17.32;98.85;102143.22;12952146;22;20018;-92
2022/10/03 14:34:04;;;;;;;6.93;0.70;;;;;;;18.31;100.00;102274.41;12914256;22;19999;-91
2022/10/03 14:39:36;;;;;;;4.68;0.65;;;;;;;19.17;100.00;102414.53;12809451;22;20007;-91
2022/10/03 14:44:48;;;;;;;5.68;1.10;;;;;;;17.37;100.00;102260.19;12963893;22;20042;-91
2022/10/03 14:50:05;;;;;;;3.65;0.60;;;;;;;16.36;100.00;102175.50;12934816;22;20069;-93
2022/10/03 14:55:14;;;;;;;3.97;0.60;;;;;;;16.71;100.00;102308.50;12891756;22;19995;-91
2022/10/03 15:00:26;;;;;;;5.05;1.15;;;;;;;17.70;100.00;102475.44;12903303;22;20014;-89
2022/10/03 15:05:35;;;;;;;5.72;0.77;;;;;;;16.84;100.00;102350.94;13008777;22;20006;-91
2022/10/03 15:10:36;;;;;;;4.72;1.00;;;;;;;16.05;100.00;102260.44;12939442;22;20018;-90
2022/10/03 15:15:38;;;;;;;3.00;0.60;;;;;;;16.40;100.00;102342.59;12922884;22;20073;-90
2022/10/03 15:20:42;;;;;;;5.25;1.00;;;;;;;15.73;100.00;102219.47;12872569;22;20003;-91
2022/10/03 15:25:54;;;;;;;5.75;1.02;;;;;;;15.85;100.00;102300.72;12820599;22;20015;-90
2022/10/03 15:30:55;;;;;;;4.15;0.60;;;;;;;15.33;100.00;102245.47;12840055;22;20011;-90
2022/10/03 15:36:11;;;;;;;7.07;1.00;;;;;;;15.50;100.00;102282.41;12900168;22;20022;-89
2022/10/03 15:41:28;;;;;;;7.25;1.40;;;;;;;15.42;100.00;102287.50;12995527;22;20022;-88
2022/10/03 15:46:38;;;;;;;4.47;1.45;;;;;;;15.93;100.00;102380.00;12920741;22;20041;-90
2022/10/03 15:51:38;;;;;;;6.90;0.85;;;;;;;15.92;100.00;102392.22;12998396;22;20007;-88
2022/10/03 15:56:41;;;;;;;6.80;0.80;;;;;;;14.38;100.00;102158.41;13017127;22;20003;-88
2022/10/03 16:01:45;;;;;;;5.15;0.75;;;;;;;14.57;100.00;102184.81;12905692;22;20001;-91
2022/10/03 16:06:58;;;;;;;6.50;1.33;;;;;;;16.27;100.00;102480.00;12815572;22;20101;-89
2022/10/03 16:12:37;;;;;;;5.50;1.55;;;;;;;14.84;100.00;102267.38;12943270;22;21314;-92
2022/10/03 16:17:50;;;;;;;2.83;1.17;;;;;;;16.01;100.00;102465.66;13026825;22;20019;-90
2022/10/03 16:22:55;;;;;;;5.20;0.80;;;;;;;14.45;100.00;102253.28;13026113;22;20026;-94
2022/10/03 16:28:02;;;;;;;5.20;0.90;;;;;;;14.50;100.00;102345.69;12966385;22;20063;-89
2022/10/03 16:33:11;;;;;;;;;;;;;;;15.37;100.00;102460.31;12979524;22;20090;-90
2022/10/03 16:38:25;;;;;;;9.35;1.35;;;;;;;15.16;100.00;102461.03;12983052;22;19937;-90
2022/10/03 16:43:26;;;;;;;6.70;1.65;;;;;;;14.89;100.00;102481.81;13024920;22;20023;-90
2022/10/03 16:53:51;;;;;;;5.93;1.05;;;;;;;13.45;100.00;102314.19;13000709;22;20030;-91
2022/10/03 16:59:05;;;;;;;5.40;1.25;;;;;;;14.18;100.00;102466.28;12892788;22;20152;-90
2022/10/03 17:04:21;;;;;;;6.80;1.50;;;;;;;12.68;100.00;102279.00;12985695;22;20007;-90
2022/10/03 17:09:42;;;;;;;8.82;1.50;;;;;;;13.02;100.00;102358.66;12916292;22;20119;-90
2022/10/03 17:14:45;;;;;;;4.65;1.48;;;;;;;12.82;100.00;102384.69;12916585;22;20100;-90
2022/10/03 17:19:49;;;;;;;2.88;1.38;;;;;;;12.27;100.00;102341.34;12956933;22;20524;-91
2022/10/03 17:25:03;;;;;;;8.57;1.85;;;;;;;13.05;100.00;102450.28;12951362;22;20010;-90
2022/10/03 17:30:33;;;;;;;13.35;2.00;;;;;;;12.90;100.00;102458.16;13006398;22;20374;-91
2022/10/03 17:35:49;;;;;;;15.15;2.55;;;;;;;11.51;100.00;102248.69;12894632;22;19999;-91
2022/10/03 17:41:09;;;;;;;3.63;1.07;;;;;;;11.64;100.00;102267.06;12963437;22;20046;-90
2022/10/03 17:46:18;;;;;;;5.47;1.50;;;;;;;13.00;100.00;102441.88;12960847;22;20233;-90
2022/10/03 17:51:30;;;;;;;8.40;1.30;;;;;;;11.43;100.00;102194.72;12978556;22;20010;-91
2022/10/03 17:56:33;;;;;;;6.70;1.67;;;;;;;11.94;100.00;102327.06;12970629;22;20086;-90
2022/10/03 18:01:38;;;;;;;7.55;1.58;;;;;;;12.04;100.00;102364.09;12941738;22;20006;-89
2022/10/03 18:06:43;;;;;;;7.18;1.90;;;;;;;10.92;100.00;102230.78;12953683;22;20018;-90
2022/10/03 18:11:51;;;;;;;10.73;1.52;;;;;;;10.87;100.00;102247.97;12829368;22;20072;-90
2022/10/03 18:16:57;;;;;;;6.07;1.63;;;;;;;11.82;100.00;102407.78;12866328;22;20383;-88
2022/10/03 18:22:24;;;;;;;4.63;1.70;;;;;;;10.82;100.00;102265.16;12991342;22;20019;-89
2022/10/03 18:28:00;;;;;;;;;;;;;;;;;;;;;
2022/10/03 18:33:01;;;;;;;9.25;1.88;;;;;;;10.74;100.00;102311.44;12942586;22;20009;-90
2022/10/03 18:38:33;;;;;;;6.43;1.80;;;;;;;11.37;100.00;102454.81;12893841;22;20071;-89
2022/10/03 18:44:07;;;;;;;6.07;2.42;;;;;;;10.75;100.00;102382.84;12923288;22;20015;-89
2022/10/03 18:49:17;;;;;;;9.40;3.55;;;;;;;11.50;100.00;102449.19;12973929;22;20022;-89
2022/10/03 18:54:45;;;;;;;12.85;3.70;;;;;;;11.49;100.00;102446.66;12897314;22;20003;-89
2022/10/03 18:59:56;;;;;;;13.90;3.50;;;;;;;11.49;100.00;102488.91;12975442;22;20015;-88
2022/10/03 19:05:36;;;;;;;9.57;3.30;;;;;;;11.50;100.00;102434.56;13046982;22;20010;-88
2022/10/03 19:10:38;;;;;;;7.40;2.70;;;;;;;11.46;100.00;102447.13;13060898;22;20061;-87
2022/10/03 19:16:03;;;;;;;8.45;2.92;;;;;;;11.40;100.00;102432.28;13036531;22;20075;-88
2022/10/03 19:21:17;;;;;;;9.95;3.20;;;;;;;9.66;100.00;102169.81;13052902;22;20028;-89
2022/10/03 19:26:34;;;;;;;7.55;3.72;;;;;;;9.13;100.00;102107.56;12965645;22;20011;-89
2022/10/03 19:31:45;;;;;;;9.23;3.70;;;;;;;9.73;100.00;102220.13;13010515;22;20002;-89
2022/10/03 19:36:47;;;;;;;10.93;3.80;;;;;;;10.28;100.00;102313.28;12983095;22;19998;-88
2022/10/03 19:41:53;;;;;;;11.48;3.95;;;;;;;9.46;100.00;102200.94;12983069;22;20014;-89
2022/10/03 19:47:19;;;;;;;14.13;3.90;;;;;;;10.99;100.00;102433.56;13019544;22;20049;-85
2022/10/03 19:52:49;;;;;;;7.82;3.92;;;;;;;9.72;100.00;102236.84;13048017;22;20064;-87
2022/10/03 19:58:03;;;;;;;13.05;3.60;;;;;;;9.78;100.00;102297.34;13035833;22;20014;-88
2022/10/03 20:03:07;;;;;;;10.32;4.95;;;;;;;8.93;100.00;102135.06;12991531;22;19998;-88
2022/10/03 20:08:20;;;;;;;14.60;4.10;;;;;;;9.05;100.00;102188.31;13044234;22;20095;-87
2022/10/03 20:13:20;;;;;;;10.82;4.00;;;;;;;9.96;100.00;102329.66;13002609;22;19999;-88
2022/10/03 20:18:34;;;;;;;17.98;6.05;;;;;;;9.81;100.00;102312.56;13042668;22;20052;-86
2022/10/03 20:23:35;;;;;;;12.23;5.82;;;;;;;9.22;100.00;102218.94;13011005;22;20003;-88
2022/10/03 20:29:11;;;;;;;9.38;5.10;;;;;;;10.52;100.00;102432.88;12977069;22;20038;-89
2022/10/03 20:34:14;;;;;;;15.23;5.25;;;;;;;9.99;100.00;102325.66;13009497;22;20014;-89
2022/10/03 20:39:24;;;;;;;8.73;4.55;;;;;;;8.83;100.00;102121.75;12987489;22;20060;-89
2022/10/03 20:44:47;;;;;;;9.80;4.30;;;;;;;9.23;100.00;102217.88;13019005;22;20041;-88
2022/10/03 20:49:59;;;;;;;9.13;3.70;;;;;;;10.06;100.00;102351.22;13047606;22;20386;-88
2022/10/03 20:55:04;;;;;;;8.88;4.32;;;;;;;8.66;100.00;102093.91;13001479;22;19995;-89
2022/10/03 21:00:14;;;;;;;14.02;4.80;;;;;;;10.78;100.00;102426.47;12983192;22;20002;-89
2022/10/03 21:05:34;;;;;;;13.60;5.43;;;;;;;8.72;100.00;102099.59;13068156;22;20005;-88
2022/10/03 21:10:39;;;;;;;10.32;4.97;;;;;;;9.99;100.00;102322.91;12993774;22;20025;-88
2022/10/03 21:16:09;;;;;;;7.60;4.90;;;;;;;8.84;100.00;102104.22;12880168;22;20003;-89
2022/10/03 21:21:36;;;;;;;14.77;6.38;;;;;;;9.81;100.00;102252.88;12741995;22;20011;-88
2022/10/03 21:26:48;;;;;;;11.50;5.28;;;;;;;9.56;100.00;102244.47;12865352;22;20020;-88
2022/10/03 21:32:51;;;;;;;16.25;6.75;;;;;;;10.99;100.00;102422.53;12904813;22;20010;-88
2022/10/03 21:38:15;;;;;;;16.58;6.13;;;;;;;11.02;100.00;102413.84;12987864;22;20029;-88
2022/10/03 21:44:35;;;;;;;;;;;;;;;;;;;;;
2022/10/03 21:50:16;;;;;;;12.27;5.97;;;;;;;11.06;100.00;102409.59;12539683;23;20052;-89
2022/10/03 21:56:06;;;;;;;;;;;;;;;;;;;;;
2022/10/03 22:01:28;;;;;;;26.63;6.25;;;;;;;11.10;100.00;102388.78;12720985;22;20420;-88
2022/10/03 22:07:13;;;;;;;11.85;4.75;;;;;;;8.73;100.00;102013.44;12724185;22;20020;-89
2022/10/03 22:13:56;;;;;;;16.27;5.45;;;;;;;11.09;100.00;102380.75;12657915;22;20374;-89
2022/10/03 22:19:13;;;;;;;12.07;5.00;;;;;;;9.80;100.00;102163.19;12755015;22;20349;-88
2022/10/03 22:24:41;;;;;;;13.10;5.40;;;;;;;10.59;100.00;102304.28;13005526;22;20003;-89
2022/10/03 22:30:00;;;;;;;9.10;4.63;;;;;;;11.02;100.00;102344.97;12891261;22;20019;-88
2022/10/03 22:35:14;;;;;;;20.77;5.25;;;;;;;11.00;100.00;102322.28;12862520;22;20010;-89
2022/10/03 22:40:15;;;;;;;18.05;5.88;;;;;;;10.50;100.00;102273.41;13020543;22;20019;-88
2022/10/03 22:45:16;;;;;;;9.32;4.82;;;;;;;10.49;100.00;102293.75;13000211;22;20437;-89
2022/10/03 22:50:17;;;;;;;10.18;5.18;;;;;;;8.98;100.00;102033.63;13002439;22;20023;-88
2022/10/03 22:55:19;;;;;;;11.20;5.28;;;;;;;9.83;100.00;102195.75;13015035;22;20003;-89
2022/10/03 23:00:25;;;;;;;12.57;5.38;;;;;;;10.33;100.00;102238.34;13014021;22;20461;-89
2022/10/03 23:05:46;;;;;;;11.68;5.18;;;;;;;9.76;100.00;102183.94;13014479;22;20007;-87
2022/10/03 23:10:46;;;;;;;12.55;5.18;;;;;;;10.44;100.00;102262.44;13040936;22;20011;-88
2022/10/03 23:15:52;;;;;;;10.68;4.97;;;;;;;8.97;100.00;102007.25;13064013;22;20035;-88
2022/10/03 23:20:59;;;;;;;20.23;6.25;;;;;;;9.47;100.00;102065.19;12985409;22;20007;-89
2022/10/03 23:26:26;;;;;;;14.45;6.22;;;;;;;10.91;100.00;102307.06;13025755;22;20011;-88
2022/10/03 23:31:52;;;;;;;12.23;5.43;;;;;;;10.90;100.00;102306.22;13037769;22;20018;-88
2022/10/03 23:37:12;;;;;;;16.70;7.93;;;;;;;10.93;100.00;102315.97;13023336;22;20007;-88
2022/10/03 23:42:31;;;;;;;15.95;7.50;;;;;;;10.94;100.00;102323.19;13005732;22;20021;-88
2022/10/03 23:47:33;;;;;;;13.43;6.50;;;;;;;9.40;100.00;102080.00;13068373;22;20042;-88
2022/10/03 23:52:43;;;;;;;22.30;8.68;;;;;;;10.18;100.00;102220.16;13000140;22;20003;-88
2022/10/03 23:57:43;;;;;;;19.33;7.65;;;;;;;9.93;100.00;102165.03;13015201;22;20034;-88
